Time;durP1;ratioP1;P1;durP2;ratioP2;P2;SDS_P1;SDS_P2;PMS_P1;PMS_P2;Temp;Humidity;BMP_temperature;BMP_pressure;BME280_temperature;BME280_humidity;BME280_pressure;Samples;Min_cycle;Max_cycle;Signal;HPM_P1;HPM_P2
2022/07/05 00:01:21;;;;;;;4.83;4.40;;;23.60;62.50;;;24.16;46.85;95079.19;5061970;28;20479;-56
2022/07/05 00:03:48;;;;;;;10.20;4.53;;;23.60;62.20;;;24.10;47.69;95082.75;5058021;28;20858;-56
2022/07/05 00:06:15;;;;;;;5.00;4.50;;;23.60;62.80;;;24.06;47.62;95078.03;5060788;28;20937;-55
2022/07/05 00:08:43;;;;;;;5.00;4.50;;;23.50;63.60;;;24.02;47.86;95077.66;5058110;28;20455;-55
2022/07/05 00:11:10;;;;;;;5.83;4.10;;;23.40;63.50;;;23.98;48.55;95077.28;5061256;28;20524;-56
2022/07/05 00:13:37;;;;;;;3.87;3.33;;;23.40;64.10;;;23.96;48.24;95082.03;5057413;28;20454;-55
2022/07/05 00:16:05;;;;;;;6.07;3.30;;;23.40;63.50;;;23.92;47.09;95080.84;5057772;28;20463;-56
2022/07/05 00:18:34;;;;;;;4.20;3.70;;;23.30;62.30;;;23.90;47.19;95080.22;5057923;28;20443;-54
2022/07/05 00:21:01;;;;;;;5.67;3.63;;;23.30;62.20;;;23.89;47.29;95083.13;5050565;28;20470;-55
2022/07/05 00:23:29;;;;;;;12.33;4.07;;;23.30;62.70;;;23.90;47.85;95087.47;5063090;28;20450;-55
2022/07/05 00:25:56;;;;;;;23.73;3.03;;;23.30;62.50;;;23.87;46.48;95086.03;5065609;28;20995;-55
2022/07/05 00:28:23;;;;;;;6.13;2.93;;;23.30;60.40;;;23.85;45.80;95082.75;5061380;28;20501;-54
2022/07/05 00:30:50;;;;;;;13.60;4.13;;;23.30;60.40;;;23.82;46.98;95075.09;5064086;28;20479;-60
2022/07/05 00:33:18;;;;;;;4.70;4.30;;;23.20;61.50;;;23.75;46.99;95080.50;5062218;28;21092;-56
2022/07/05 00:35:46;;;;;;;6.77;4.30;;;23.20;62.30;;;23.70;47.23;95068.75;5063705;28;21007;-55
2022/07/05 00:38:14;;;;;;;16.57;4.50;;;23.10;62.70;;;23.64;47.51;95059.72;5062871;28;20463;-54
2022/07/05 00:40:42;;;;;;;4.70;4.27;;;23.10;63.20;;;23.60;47.92;95069.25;5061297;28;20487;-55
2022/07/05 00:43:10;;;;;;;11.13;3.93;;;23.00;63.10;;;23.56;47.17;95063.50;5065245;28;20447;-54
2022/07/05 00:45:37;;;;;;;7.40;4.03;;;23.00;62.60;;;23.53;47.27;95058.56;5064511;28;20478;-56
2022/07/05 00:48:04;;;;;;;3.70;3.40;;;23.00;62.30;;;23.48;48.17;95055.69;5062445;28;20497;-53
2022/07/05 00:50:31;;;;;;;6.23;4.00;;;22.90;63.00;;;;;;5063267;28;20524;-56
2022/07/05 00:53:00;;;;;;;3.73;3.50;;;22.90;63.00;;;23.44;47.91;95065.22;5063549;28;20514;-56
2022/07/05 00:55:27;;;;;;;4.50;3.77;;;22.90;63.00;;;23.44;48.16;95070.59;5065483;28;20474;-55
2022/07/05 00:57:55;;;;;;;6.07;5.00;;;22.90;63.60;;;23.45;49.22;95074.91;5061937;28;20996;-54
2022/07/05 01:00:22;;;;;;;10.13;4.30;;;22.90;65.00;;;23.43;49.51;95072.44;5061762;28;20842;-54
2022/07/05 01:02:50;;;;;;;10.93;4.70;;;22.90;65.30;;;23.41;49.70;95077.19;5065420;28;20463;-56
2022/07/05 01:05:17;;;;;;;5.70;4.23;;;22.80;65.50;;;23.39;49.57;95073.06;5061091;28;20971;-55
2022/07/05 01:07:44;;;;;;;9.13;4.97;;;22.80;66.00;;;23.36;50.24;95074.34;5064958;28;20609;-55
2022/07/05 01:10:13;;;;;;;8.77;4.33;;;22.80;66.20;;;23.33;50.38;95068.56;5061437;28;20478;-55
2022/07/05 01:12:41;;;;;;;5.53;4.20;;;22.70;66.40;;;23.31;49.97;95078.69;5064547;28;20673;-55
2022/07/05 01:15:09;;;;;;;5.20;4.03;;;22.70;66.50;;;23.26;50.61;95072.09;5063209;28;20840;-54
2022/07/05 01:17:37;;;;;;;5.57;4.50;;;22.70;66.80;;;23.24;50.31;95076.88;5063091;28;20443;-55
2022/07/05 01:20:06;;;;;;;4.33;3.87;;;22.70;66.90;;;23.22;50.23;95084.31;5061230;28;20452;-56
2022/07/05 01:22:55;;;;;;;5.90;4.27;;;22.60;66.90;;;23.21;50.68;95077.31;5064641;28;20989;-55
2022/07/05 01:25:23;;;;;;;4.60;4.13;;;22.60;66.90;;;23.15;50.76;95080.84;5060575;28;20561;-55
2022/07/05 01:27:50;;;;;;;4.90;4.23;;;22.60;67.00;;;23.11;50.29;95082.28;5060156;28;20629;-55
2022/07/05 01:30:17;;;;;;;7.97;3.43;;;22.60;67.10;;;23.07;50.33;95083.75;5063410;28;20485;-55
2022/07/05 01:32:45;;;;;;;3.93;3.60;;;22.50;67.10;;;23.04;50.42;95081.47;5058564;28;20452;-56
2022/07/05 01:35:13;;;;;;;4.90;3.10;;;22.50;66.70;;;22.98;50.03;95085.81;5064025;28;20566;-54
2022/07/05 01:37:41;;;;;;;4.37;3.53;;;22.40;66.80;;;22.93;50.03;95082.97;5060895;28;20778;-56
2022/07/05 01:40:10;;;;;;;5.87;4.00;;;22.40;66.80;;;22.90;50.69;95080.69;5062901;28;20487;-53
2022/07/05 01:42:37;;;;;;;5.70;3.60;;;22.40;66.90;;;22.88;50.94;95074.72;5060375;28;20446;-55
2022/07/05 01:45:06;;;;;;;6.33;4.00;;;22.30;67.20;;;22.83;50.81;95069.97;5062445;28;20492;-56
2022/07/05 01:47:33;;;;;;;5.00;3.70;;;22.30;67.40;;;22.82;50.83;95072.88;5060015;28;20491;-54
2022/07/05 01:50:00;;;;;;;9.43;3.83;;;22.30;67.70;;;22.78;50.90;95074.34;5063907;28;20967;-55
2022/07/05 01:52:28;;;;;;;4.17;3.73;;;22.20;67.70;;;22.74;50.73;95063.19;5062194;28;20624;-54
2022/07/05 01:54:57;;;;;;;6.90;3.70;;;22.20;67.60;;;22.71;50.85;95068.97;5064174;28;20463;-54
2022/07/05 01:57:24;;;;;;;4.13;3.73;;;22.20;67.60;;;22.69;50.57;95068.38;5061775;28;20827;-54
2022/07/05 01:59:51;;;;;;;4.60;4.23;;;22.10;67.40;;;22.67;50.74;95082.00;5063551;28;20446;-54
2022/07/05 02:02:18;;;;;;;8.40;4.20;;;22.10;67.80;;;22.64;50.68;95074.38;5060233;28;20959;-55
2022/07/05 02:04:46;;;;;;;5.43;3.23;;;22.10;67.90;;;22.63;50.86;95071.91;5063522;28;20870;-54
2022/07/05 02:07:13;;;;;;;4.43;4.03;;;22.10;67.80;;;22.60;51.27;95072.31;5061150;28;20499;-54
2022/07/05 02:09:40;;;;;;;4.60;4.20;;;22.00;67.70;;;22.58;51.19;95072.53;5061301;28;20820;-56
2022/07/05 02:12:10;;;;;;;4.73;3.27;;;22.00;67.80;;;22.55;50.91;95073.75;5061663;28;20497;-56
2022/07/05 02:14:37;;;;;;;8.03;3.60;;;22.00;67.90;;;22.54;50.68;95082.84;5063203;28;20451;-56
2022/07/05 02:17:05;;;;;;;4.77;3.87;;;22.00;68.10;;;22.53;51.11;95093.78;5058930;28;20492;-55
2022/07/05 02:19:32;;;;;;;4.27;3.40;;;22.00;68.10;;;22.53;51.24;95085.75;5061229;28;20447;-55
2022/07/05 02:22:00;;;;;;;4.53;3.73;;;22.00;68.20;;;22.52;50.86;95092.13;5061338;28;20966;-56
2022/07/05 02:24:27;;;;;;;7.37;3.70;;;21.90;68.10;;;22.49;50.86;95082.63;5061131;28;20454;-54
2022/07/05 02:26:54;;;;;;;4.10;3.80;;;21.90;68.00;;;22.50;51.28;95086.97;5061260;28;20479;-56
2022/07/05 02:29:23;;;;;;;4.70;3.80;;;21.90;68.30;;;22.52;51.58;95087.59;5059619;28;20796;-55
2022/07/05 02:31:50;;;;;;;13.37;4.40;;;22.00;68.80;;;22.54;51.66;95092.72;5059625;28;21024;-54
2022/07/05 02:34:18;;;;;;;11.80;4.93;;;21.90;68.70;;;22.51;51.32;95093.16;5059603;28;20459;-56
2022/07/05 02:36:45;;;;;;;10.73;4.23;;;21.90;68.70;;;22.46;51.98;95087.59;5062005;28;20470;-55
2022/07/05 02:39:12;;;;;;;10.03;5.10;;;21.90;69.30;;;22.40;51.87;95094.59;5060032;28;20459;-55
2022/07/05 02:41:39;;;;;;;4.60;4.20;;;21.90;69.50;;;22.34;52.58;95098.97;5062565;28;20852;-55
2022/07/05 02:44:07;;;;;;;9.73;4.10;;;21.80;70.10;;;22.29;52.49;95097.91;5058974;28;20460;-55
2022/07/05 02:46:35;;;;;;;13.13;3.90;;;21.80;70.00;;;22.23;52.30;95098.72;5060139;28;20467;-55
2022/07/05 02:49:03;;;;;;;8.97;4.40;;;21.70;70.50;;;22.17;52.72;95098.53;5059338;28;20495;-56
2022/07/05 02:51:30;;;;;;;4.40;4.00;;;21.70;70.70;;;22.11;52.71;95104.72;5065267;28;20938;-55
2022/07/05 02:53:57;;;;;;;8.60;4.87;;;21.60;70.60;;;22.08;53.20;95105.13;5059677;28;20510;-55
2022/07/05 02:56:25;;;;;;;9.47;3.27;;;21.60;70.70;;;22.05;52.91;95113.56;5064654;28;20475;-56
2022/07/05 02:58:52;;;;;;;5.60;4.40;;;21.50;71.10;;;22.02;53.06;95108.63;5059031;28;20455;-55
2022/07/05 03:01:19;;;;;;;6.43;4.07;;;21.50;71.10;;;21.98;52.78;95108.22;5060807;28;20485;-55
2022/07/05 03:03:48;;;;;;;7.73;4.23;;;21.50;70.80;;;21.96;52.82;95110.25;5059178;28;20818;-55
2022/07/05 03:06:15;;;;;;;6.13;3.70;;;21.40;70.70;;;21.96;52.62;95104.09;5064805;28;20474;-54
2022/07/05 03:08:42;;;;;;;13.43;4.00;;;21.40;70.70;;;21.95;52.71;95115.81;5058398;28;21023;-56
2022/07/05 03:11:10;;;;;;;4.53;4.13;;;21.40;70.70;;;21.93;52.58;95117.88;5065231;28;20471;-56
2022/07/05 03:13:37;;;;;;;6.97;4.00;;;21.40;70.50;;;21.90;52.73;95108.41;5060648;28;20454;-55
2022/07/05 03:16:05;;;;;;;3.90;3.60;;;21.40;70.40;;;21.89;52.59;95104.09;5058874;28;20529;-55
2022/07/05 03:18:33;;;;;;;6.93;3.73;;;21.40;70.30;;;21.88;52.18;95107.78;5059802;28;20906;-55
2022/07/05 03:21:01;;;;;;;5.80;3.87;;;21.30;70.00;;;21.87;52.25;95105.31;5058700;28;20482;-55
2022/07/05 03:23:29;;;;;;;3.47;3.17;;;21.30;70.00;;;21.87;52.21;95099.94;5060157;28;20979;-55
2022/07/05 03:25:56;;;;;;;4.50;3.57;;;21.30;69.90;;;21.87;52.02;95097.28;5059842;28;20488;-54
2022/07/05 03:28:23;;;;;;;8.40;3.47;;;21.30;69.80;;;21.86;52.21;95101.81;5060563;28;20498;-56
2022/07/05 03:30:51;;;;;;;3.17;2.97;;;21.40;70.10;;;21.87;52.05;95106.13;5058498;28;20825;-55
2022/07/05 03:33:18;;;;;;;8.40;3.30;;;21.30;69.70;;;21.89;52.15;95101.41;5061361;28;20451;-56
2022/07/05 03:35:45;;;;;;;6.00;3.33;;;21.30;69.90;;;21.92;52.01;95108.19;5060228;28;20474;-54
2022/07/05 03:38:14;;;;;;;6.93;3.70;;;21.30;70.00;;;21.93;51.96;95102.63;5059412;28;20505;-55
2022/07/05 03:40:41;;;;;;;4.27;3.73;;;21.40;69.90;;;21.97;51.82;95103.06;5057774;28;20503;-55
2022/07/05 03:43:09;;;;;;;3.90;3.50;;;21.40;69.70;;;21.97;51.92;95098.53;5060706;28;20454;-55
2022/07/05 03:45:36;;;;;;;6.30;3.90;;;21.40;70.00;;;22.04;52.26;95101.19;5057916;28;20472;-55
2022/07/05 03:48:03;;;;;;;8.03;3.70;;;21.50;70.40;;;22.11;51.69;95103.91;5060193;28;20483;-55
2022/07/05 03:50:31;;;;;;;3.70;3.40;;;21.60;70.20;;;22.16;51.53;95090.69;5061184;28;20470;-55
2022/07/05 03:52:58;;;;;;;7.57;3.60;;;21.60;69.70;;;22.20;51.45;95098.13;5061263;28;20451;-55
2022/07/05 03:55:27;;;;;;;8.60;3.80;;;21.60;69.60;;;22.24;51.47;95095.03;5061924;28;20467;-55
2022/07/05 03:57:54;;;;;;;4.70;4.30;;;21.70;69.80;;;22.27;51.76;95098.09;5059324;28;20459;-55
2022/07/05 04:00:21;;;;;;;9.90;3.63;;;21.70;69.70;;;22.26;52.07;95090.28;5056466;28;20870;-57
2022/07/05 04:02:48;;;;;;;6.20;3.97;;;21.70;69.80;;;22.27;51.41;95105.31;5061301;28;20481;-55
2022/07/05 04:05:16;;;;;;;4.87;4.33;;;21.70;69.80;;;22.27;51.71;95098.09;5057486;28;20476;-55
2022/07/05 04:07:50;;;;;;;5.23;4.73;;;21.70;70.00;;;22.28;51.85;95102.44;5060523;28;20493;-55
2022/07/05 04:10:17;;;;;;;5.00;4.50;;;21.70;69.80;;;22.28;51.73;95094.41;5057794;28;20532;-56
2022/07/05 04:12:46;;;;;;;4.70;4.00;;;21.70;69.90;;;22.28;51.87;95097.09;5060024;28;20455;-55
2022/07/05 04:15:14;;;;;;;4.20;3.90;;;21.80;70.00;;;22.30;51.70;95095.03;5058049;28;20999;-56
2022/07/05 04:17:48;;;;;;;6.00;4.03;;;21.80;70.20;;;22.34;51.46;95092.78;5056578;28;20447;-55
2022/07/05 04:20:16;;;;;;;5.50;4.30;;;21.80;70.00;;;22.34;51.54;95096.28;5059612;28;20470;-56
2022/07/05 04:22:43;;;;;;;10.73;4.17;;;21.80;70.10;;;22.36;52.00;95104.13;5058133;28;20799;-55
2022/07/05 04:25:19;;;;;;;16.60;4.63;;;21.80;70.80;;;22.39;52.55;95095.66;5056113;28;20470;-54
2022/07/05 04:27:49;;;;;;;8.50;3.97;;;21.90;71.20;;;22.45;51.79;95094.84;5058474;28;20489;-57
2022/07/05 04:30:17;;;;;;;8.53;4.10;;;21.90;70.70;;;22.52;51.91;95095.63;5060045;28;20851;-55
2022/07/05 04:32:44;;;;;;;12.87;4.70;;;21.90;71.00;;;22.61;51.54;95098.09;5056351;28;20490;-56
2022/07/05 04:35:12;;;;;;;6.93;3.70;;;22.00;70.50;;;22.65;51.50;95086.75;5055747;28;20467;-55
2022/07/05 04:37:39;;;;;;;15.73;4.67;;;22.00;70.20;;;22.67;51.34;95094.59;5056941;28;20452;-56
2022/07/05 04:40:08;;;;;;;5.93;3.80;;;22.10;70.20;;;22.68;51.20;95090.84;5059171;28;20490;-60
2022/07/05 04:42:35;;;;;;;5.67;4.03;;;22.10;69.70;;;22.71;51.52;95087.75;5055379;28;20452;-56
2022/07/05 04:45:05;;;;;;;7.30;3.80;;;22.10;69.40;;;22.72;51.41;95092.91;5058290;28;20451;-57
2022/07/05 04:47:33;;;;;;;13.20;4.20;;;22.20;69.00;;;22.73;50.88;95094.56;5054975;28;20459;-56
2022/07/05 04:50:01;;;;;;;7.27;4.13;;;22.20;69.30;;;22.77;51.17;95096.81;5059017;28;20447;-54
2022/07/05 04:52:28;;;;;;;7.57;4.00;;;22.20;69.00;;;22.80;50.60;95091.84;5058665;28;20451;-55
2022/07/05 04:54:56;;;;;;;6.33;3.43;;;22.20;69.00;;;22.84;50.80;95097.63;5061412;28;20459;-56
2022/07/05 04:57:23;;;;;;;10.20;4.73;;;22.30;69.10;;;22.86;50.68;95095.56;5058939;28;20456;-55
2022/07/05 04:59:50;;;;;;;3.70;3.40;;;22.30;69.10;;;22.90;50.67;95091.44;5060978;28;20461;-55
2022/07/05 05:02:19;;;;;;;3.43;3.13;;;22.30;68.20;;;22.94;49.94;95091.81;5056307;28;20462;-57
2022/07/05 05:04:46;;;;;;;5.43;3.63;;;22.40;67.60;;;22.95;49.81;95093.47;5059253;28;20963;-56
2022/07/05 05:07:13;;;;;;;4.27;3.77;;;22.40;67.60;;;22.97;50.33;95108.31;5057296;28;20458;-55
2022/07/05 05:09:41;;;;;;;8.03;4.40;;;22.40;67.80;;;23.01;50.48;95109.53;5052779;28;20496;-57
2022/07/05 05:12:09;;;;;;;7.53;4.93;;;22.50;68.00;;;23.07;49.66;95113.25;5061879;28;20480;-56
2022/07/05 05:14:37;;;;;;;9.73;4.90;;;22.50;67.90;;;23.13;50.19;95103.53;5064599;28;20998;-55
2022/07/05 05:17:04;;;;;;;10.30;5.67;;;22.50;67.80;;;23.21;50.22;95112.19;5060607;28;20459;-55
2022/07/05 05:19:33;;;;;;;11.67;8.20;;;22.60;67.80;;;23.30;49.64;95103.88;5063975;28;20816;-55
2022/07/05 05:22:00;;;;;;;7.83;6.17;;;22.70;68.00;;;23.42;49.58;95104.88;5062507;28;20847;-55
2022/07/05 05:24:28;;;;;;;18.37;6.40;;;22.80;68.00;;;23.58;49.47;95100.88;5061076;28;20878;-55
2022/07/05 05:26:55;;;;;;;6.77;4.63;;;22.90;67.80;;;23.73;48.78;95105.94;5062512;28;20536;-55
2022/07/05 05:29:22;;;;;;;5.03;4.40;;;23.10;67.00;;;23.89;48.34;95108.13;5061507;28;20548;-56
2022/07/05 05:31:50;;;;;;;5.70;4.37;;;23.20;66.40;;;24.03;48.25;95110.72;5063417;28;20470;-56
2022/07/05 05:34:17;;;;;;;5.77;4.80;;;23.40;66.30;;;24.17;48.74;95105.03;5056390;28;20851;-56
2022/07/05 05:36:46;;;;;;;8.80;4.93;;;23.50;65.90;;;24.31;47.46;95111.13;5063516;28;20477;-55
2022/07/05 05:39:13;;;;;;;9.00;4.40;;;23.60;65.50;;;24.46;48.15;95096.50;5061693;28;20477;-56
2022/07/05 05:41:41;;;;;;;15.90;3.63;;;23.70;65.10;;;24.64;47.01;95099.25;5063105;28;20485;-56
2022/07/05 05:44:09;;;;;;;4.40;3.40;;;23.90;64.20;;;24.81;47.16;95096.81;5060240;28;20452;-57
2022/07/05 05:46:36;;;;;;;10.80;3.93;;;24.10;64.10;;;25.02;46.24;95103.63;5064030;28;20471;-56
2022/07/05 05:49:04;;;;;;;7.20;4.07;;;24.30;63.00;;;25.20;45.82;95101.97;5060845;28;20911;-55
2022/07/05 05:51:31;;;;;;;6.23;3.70;;;24.50;62.40;;;25.36;45.19;95104.09;5066519;28;20481;-55
2022/07/05 05:54:00;;;;;;;13.63;4.17;;;24.60;62.10;;;25.56;45.24;95101.13;5060176;28;20927;-55
2022/07/05 05:56:27;;;;;;;6.00;4.17;;;24.80;61.70;;;25.74;44.87;95100.25;5060329;28;20466;-55
2022/07/05 05:58:54;;;;;;;18.90;4.47;;;25.00;61.70;;;25.92;44.98;95112.84;5059968;28;20451;-55
2022/07/05 06:01:21;;;;;;;14.03;3.60;;;25.20;61.20;;;26.07;44.71;95109.78;5062530;28;20486;-55
2022/07/05 06:03:49;;;;;;;5.13;3.67;;;25.30;60.90;;;26.24;44.54;95117.16;5059308;28;20451;-56
2022/07/05 06:06:16;;;;;;;9.23;3.70;;;25.50;60.60;;;26.38;44.01;95115.88;5062872;28;20493;-56
2022/07/05 06:08:43;;;;;;;25.60;4.60;;;25.70;60.10;;;26.56;44.00;95114.16;5060343;28;20499;-55
2022/07/05 06:11:13;;;;;;;6.43;4.30;;;25.80;60.10;;;26.75;44.08;95118.41;5063514;28;21003;-55
2022/07/05 06:13:40;;;;;;;8.37;4.67;;;26.00;59.70;;;26.95;43.42;95120.72;5059947;28;20963;-55
2022/07/05 06:16:08;;;;;;;13.53;5.20;;;26.20;59.40;;;27.14;43.51;95110.63;5052750;28;20536;-55
2022/07/05 06:18:35;;;;;;;14.60;4.13;;;26.30;59.10;;;27.32;42.83;95108.84;5059679;28;20452;-55
2022/07/05 06:21:02;;;;;;;13.33;4.40;;;26.50;59.00;;;27.54;42.79;95112.56;5054306;28;20474;-54
2022/07/05 06:23:30;;;;;;;6.10;4.00;;;26.70;58.40;;;27.73;42.33;95115.03;5059723;28;20446;-56
2022/07/05 06:25:57;;;;;;;10.03;4.87;;;26.90;58.10;;;27.93;41.75;95116.47;5060739;28;20549;-55
2022/07/05 06:28:26;;;;;;;8.00;4.53;;;27.10;57.30;;;28.11;41.84;95116.31;5062064;28;20516;-55
2022/07/05 06:30:53;;;;;;;11.17;5.43;;;27.30;56.90;;;28.26;41.60;95116.56;5058933;28;20475;-55
2022/07/05 06:33:21;;;;;;;17.43;3.77;;;27.50;57.20;;;28.40;41.40;95113.53;5057392;28;20496;-55
2022/07/05 06:35:48;;;;;;;5.53;3.17;;;27.60;56.30;;;28.58;41.08;95112.44;5061855;28;20471;-55
2022/07/05 06:38:15;;;;;;;7.37;3.77;;;27.80;56.10;;;28.74;39.85;95108.94;5061106;28;20458;-54
2022/07/05 06:40:43;;;;;;;10.77;3.67;;;28.00;55.10;;;28.90;40.47;95107.28;5059767;28;20509;-54
2022/07/05 06:43:12;;;;;;;12.23;3.73;;;28.10;55.20;;;29.06;40.01;95102.06;5062071;28;20484;-57
2022/07/05 06:45:41;;;;;;;35.13;4.90;;;28.30;55.00;;;29.22;40.13;95106.66;5059000;28;21059;-55
2022/07/05 06:48:10;;;;;;;11.73;3.93;;;28.40;54.70;;;29.33;38.95;95105.69;5058460;28;20454;-55
2022/07/05 06:50:38;;;;;;;12.83;4.60;;;28.50;54.10;;;29.46;38.82;95106.41;5062955;28;20466;-56
2022/07/05 06:53:06;;;;;;;6.47;3.80;;;28.60;53.80;;;29.58;38.67;95098.94;5062616;28;20511;-56
2022/07/05 06:55:33;;;;;;;13.30;3.57;;;28.80;53.70;;;29.76;38.90;95105.09;5060133;28;20479;-55
2022/07/05 06:58:02;;;;;;;11.97;3.80;;;28.90;53.30;;;29.93;38.83;95092.31;5062121;28;20454;-55
2022/07/05 07:00:29;;;;;;;13.17;3.00;;;29.10;53.00;;;30.12;38.58;95100.06;5058603;28;20467;-56
2022/07/05 07:02:58;;;;;;;16.03;3.60;;;29.20;53.00;;;30.25;37.90;95096.91;5060440;28;20446;-56
2022/07/05 07:05:26;;;;;;;8.80;3.73;;;29.40;52.80;;;30.34;38.13;95095.38;5059205;28;20479;-55
2022/07/05 07:10:38;;;;;;;3.83;3.20;;;29.60;52.00;;;30.67;38.21;95095.38;5060316;28;20826;-56
2022/07/05 07:13:05;;;;;;;6.73;3.97;;;29.80;52.30;;;30.83;37.22;95094.41;5059379;28;20541;-55
2022/07/05 07:15:33;;;;;;;8.40;4.07;;;29.90;51.90;;;31.02;37.02;95096.72;5058734;28;21013;-55
2022/07/05 07:18:01;;;;;;;6.63;3.27;;;30.10;51.40;;;31.21;37.05;95099.78;5057647;28;20899;-56
2022/07/05 07:20:29;;;;;;;3.97;3.30;;;30.30;51.00;;;31.36;36.41;95102.56;5062540;28;20858;-56
2022/07/05 07:22:56;;;;;;;5.90;3.30;;;30.50;50.50;;;31.54;36.40;95103.19;5058344;28;20646;-55
2022/07/05 07:25:24;;;;;;;6.03;3.50;;;30.70;50.40;;;31.73;35.43;95103.53;5061414;28;20501;-55
2022/07/05 07:27:52;;;;;;;11.53;2.70;;;30.80;50.20;;;31.90;35.79;95101.41;5060273;28;20223;-55
2022/07/05 07:30:21;;;;;;;10.43;3.40;;;31.00;49.50;;;32.07;35.46;95093.00;5060463;28;20235;-55
2022/07/05 07:32:48;;;;;;;7.33;3.40;;;31.20;49.00;;;32.21;34.39;95093.31;5055586;28;20962;-56
2022/07/05 07:35:16;;;;;;;12.30;3.07;;;31.30;47.70;;;32.33;34.63;95093.03;5058989;28;20224;-56
2022/07/05 07:37:44;;;;;;;11.33;3.00;;;31.40;48.20;;;32.47;34.48;95085.97;5058859;28;20228;-57
2022/07/05 07:40:12;;;;;;;10.13;3.50;;;31.60;48.10;;;32.64;34.32;95087.56;5060734;28;20357;-56
2022/07/05 07:42:39;;;;;;;3.80;3.00;;;31.70;47.70;;;32.82;33.96;95089.75;5058398;28;20204;-55
2022/07/05 07:45:08;;;;;;;9.30;3.20;;;31.90;47.30;;;32.98;33.78;95090.53;5061264;28;20235;-56
2022/07/05 07:47:36;;;;;;;13.57;3.10;;;32.10;46.50;;;33.15;33.63;95095.66;5058214;28;20208;-55
2022/07/05 07:50:04;;;;;;;5.72;3.15;;;32.20;46.50;;;33.32;33.34;95091.84;5060862;28;20807;-56
2022/07/05 07:52:33;;;;;;;7.65;3.58;;;32.40;46.60;;;33.50;33.02;95093.94;5057838;28;20685;-55
2022/07/05 07:55:01;;;;;;;7.53;3.22;;;32.60;46.10;;;33.67;32.87;95092.78;5059630;28;20205;-56
2022/07/05 07:57:28;;;;;;;8.48;2.80;;;32.80;45.50;;;33.82;32.70;95090.00;5056460;28;20755;-56
2022/07/05 07:59:56;;;;;;;4.72;3.10;;;32.90;45.30;;;33.98;31.61;95087.19;5060418;28;20664;-56
2022/07/05 08:02:23;;;;;;;7.18;2.92;;;33.10;44.20;;;34.13;32.24;95092.53;5055715;28;20209;-57
2022/07/05 08:04:51;;;;;;;6.32;3.50;;;33.20;44.50;;;34.24;31.95;95096.84;5057475;28;20281;-56
2022/07/05 08:07:19;;;;;;;3.47;3.17;;;33.30;44.30;;;34.32;32.13;95094.59;5057369;28;20208;-57
2022/07/05 08:09:47;;;;;;;6.03;2.78;;;33.40;44.10;;;34.31;31.70;95093.78;5057714;28;20231;-55
2022/07/05 08:12:15;;;;;;;3.78;3.47;;;33.50;43.90;;;34.20;31.71;95092.22;5059980;28;20593;-56
2022/07/05 08:14:42;;;;;;;12.73;3.58;;;33.40;43.30;;;34.12;31.20;95090.91;5058335;28;20660;-57
2022/07/05 08:17:10;;;;;;;15.70;3.63;;;33.20;43.40;;;34.19;31.78;95083.22;5056979;28;20220;-56
2022/07/05 08:22:22;;;;;;;4.25;2.97;;;33.40;44.00;;;34.63;31.75;95085.03;5059787;28;20230;-56
2022/07/05 08:24:50;;;;;;;3.58;3.30;;;33.70;43.80;;;34.86;31.12;95088.16;5053514;28;20207;-56
2022/07/05 08:27:18;;;;;;;10.93;3.58;;;34.00;43.80;;;35.03;31.25;95073.19;5060402;28;20340;-57
2022/07/05 08:29:45;;;;;;;12.02;3.40;;;34.10;43.50;;;35.16;31.38;95078.78;5057904;28;20652;-57
2022/07/05 08:32:12;;;;;;;3.30;3.05;;;34.30;43.40;;;35.33;31.05;95072.06;5059192;28;20627;-55
2022/07/05 08:34:40;;;;;;;6.25;4.32;;;34.40;43.00;;;35.58;30.65;95072.84;5057410;28;20672;-57
2022/07/05 08:37:07;;;;;;;4.07;2.92;;;34.60;42.80;;;35.82;30.28;95067.34;5061165;28;20324;-55
2022/07/05 08:39:34;;;;;;;8.32;3.88;;;34.80;42.30;;;36.01;29.92;95064.63;5057672;28;20214;-55
2022/07/05 08:42:04;;;;;;;5.25;4.28;;;35.10;41.90;;;35.93;29.58;95065.28;5059765;28;20224;-55
2022/07/05 08:44:34;;;;;;;7.90;3.60;;;35.10;40.90;;;35.82;29.34;95061.88;5062883;28;20200;-57
2022/07/05 08:47:04;;;;;;;3.97;3.55;;;35.00;41.20;;;35.70;29.61;95062.28;5068356;28;20228;-56
2022/07/05 08:49:33;;;;;;;4.78;3.90;;;34.90;41.00;;;35.61;29.33;95064.88;5065566;28;20236;-56
2022/07/05 08:52:02;;;;;;;6.05;4.50;;;34.80;41.20;;;35.52;29.94;95062.00;5068425;28;20216;-56
2022/07/05 08:54:30;;;;;;;6.13;3.30;;;34.70;40.80;;;35.48;30.56;95057.41;5069399;28;20238;-55
2022/07/05 08:56:57;;;;;;;5.45;3.83;;;34.60;41.40;;;35.59;30.06;95047.94;5069673;28;20731;-56
2022/07/05 08:59:25;;;;;;;6.43;3.53;;;34.70;41.60;;;35.80;30.29;95039.47;5067199;28;20212;-57
2022/07/05 09:01:53;;;;;;;5.00;3.50;;;34.80;41.60;;;36.07;29.42;95047.00;5068234;28;20723;-57
2022/07/05 09:04:20;;;;;;;6.72;3.63;;;35.10;41.70;;;36.37;29.44;95039.44;5066811;28;20243;-60
2022/07/05 09:06:49;;;;;;;3.63;3.28;;;35.40;41.70;;;36.65;29.99;95042.25;5066983;28;20226;-56
2022/07/05 09:09:21;;;;;;;10.52;3.63;;;35.60;41.40;;;36.86;29.13;95042.72;5067480;28;20691;-55
2022/07/05 09:11:49;;;;;;;6.88;4.15;;;35.90;40.90;;;36.96;28.99;95040.56;5070308;28;20657;-56
2022/07/05 09:14:21;;;;;;;8.52;4.07;;;36.00;40.60;;;36.97;28.81;95031.22;5064188;28;20215;-55
2022/07/05 09:16:50;;;;;;;11.30;4.30;;;36.10;40.30;;;36.95;28.51;95027.16;5062724;28;20315;-57
2022/07/05 09:19:17;;;;;;;9.43;3.85;;;36.10;40.00;;;36.99;28.74;95028.19;5069202;28;20283;-55
2022/07/05 09:21:45;;;;;;;8.95;5.00;;;36.10;40.10;;;37.03;28.69;95023.72;5071932;28;20222;-55
2022/07/05 09:24:13;;;;;;;3.78;3.47;;;36.10;39.50;;;37.04;28.66;95028.06;5069402;28;20211;-55
2022/07/05 09:26:41;;;;;;;5.35;3.85;;;36.20;39.90;;;37.13;28.38;95022.69;5068345;28;20231;-57
2022/07/05 09:29:09;;;;;;;7.47;4.40;;;36.30;39.80;;;37.13;29.30;95019.97;5066116;28;20196;-57
2022/07/05 09:31:37;;;;;;;11.63;4.40;;;36.30;39.80;;;37.23;28.69;95018.97;5063711;28;20621;-55
2022/07/05 09:34:07;;;;;;;10.88;3.85;;;36.30;39.90;;;37.39;28.75;95020.28;5064674;28;20192;-56
2022/07/05 09:36:55;;;;;;;5.18;4.10;;;36.50;40.10;;;37.59;28.34;95013.53;5065949;28;20274;-57
2022/07/05 09:39:41;;;;;;;5.53;4.60;;;36.70;39.40;;;37.67;28.04;95006.50;5062450;28;20212;-56
2022/07/05 09:42:20;;;;;;;8.73;4.53;;;36.70;39.00;;;37.71;28.15;95009.44;5061671;28;20330;-56
2022/07/05 09:44:48;;;;;;;6.70;3.75;;;36.80;39.00;;;37.73;27.98;95013.53;5065702;28;20211;-56
2022/07/05 09:47:17;;;;;;;6.80;4.55;;;36.80;38.40;;;37.74;27.97;95003.34;5063947;28;20209;-56
2022/07/05 09:49:47;;;;;;;6.43;4.57;;;36.90;38.80;;;37.77;28.44;94998.06;5063147;28;20254;-58
2022/07/05 09:52:28;;;;;;;17.00;5.20;;;36.90;39.10;;;37.85;28.05;94991.81;5061413;28;20200;-57
2022/07/05 09:55:16;;;;;;;9.50;4.95;;;37.00;39.00;;;37.88;27.89;94993.16;5065008;28;20241;-56
2022/07/05 09:57:44;;;;;;;12.07;4.30;;;37.00;38.70;;;37.78;27.79;94988.69;5062450;28;20198;-56
2022/07/05 10:00:14;;;;;;;14.35;4.80;;;37.00;38.50;;;37.62;27.99;94987.41;5062229;28;20601;-56
2022/07/05 10:02:42;;;;;;;10.63;4.07;;;36.80;38.30;;;37.54;27.65;94982.63;5063939;28;20271;-56
2022/07/05 10:05:15;;;;;;;5.57;4.97;;;36.70;38.10;;;37.54;27.51;94983.47;5066672;28;20264;-57
2022/07/05 10:07:45;;;;;;;12.63;4.60;;;36.70;37.90;;;37.58;27.97;94980.91;5062197;28;20263;-57
2022/07/05 10:10:14;;;;;;;9.40;4.97;;;36.70;38.50;;;37.60;27.98;94970.41;5059866;28;20321;-57
2022/07/05 10:12:42;;;;;;;13.23;4.78;;;36.70;38.60;;;37.60;28.25;94978.66;5068927;28;20228;-56
2022/07/05 10:15:12;;;;;;;7.57;4.40;;;36.70;38.50;;;37.53;28.17;94965.34;5069694;28;20212;-55
2022/07/05 10:17:42;;;;;;;13.07;4.70;;;36.70;38.70;;;37.57;28.05;94962.78;5060709;28;20238;-57
2022/07/05 10:20:19;;;;;;;10.25;4.65;;;36.70;38.80;;;37.64;27.90;94960.44;5063551;28;20346;-56
2022/07/05 10:22:48;;;;;;;9.82;4.97;;;36.70;39.20;;;37.61;27.86;94961.06;5067468;28;20249;-56
2022/07/05 10:25:15;;;;;;;14.57;4.63;;;36.70;39.10;;;37.59;28.61;94957.81;5066580;28;20224;-55
2022/07/05 10:27:43;;;;;;;6.30;4.95;;;36.70;39.30;;;37.55;28.66;94951.31;5060802;28;20687;-55